sensor_id;sensor_type;location;lat;lon;timestamp;pressure;altitude;pressure_sealevel;temperature;humidity
43824;BME280;29470;53.550;9.926;2023-02-28T00:03:29;102783.31;;;6.63;49.62
43824;BME280;29470;53.550;9.926;2023-02-28T00:08:32;102775.22;;;6.68;50.53
43824;BME280;29470;53.550;9.926;2023-02-28T00:13:40;102770.28;;;6.47;50.85
43824;BME280;29470;53.550;9.926;2023-02-28T00:18:43;102774.31;;;6.38;51.13
43824;BME280;29470;53.550;9.926;2023-02-28T00:23:46;102787.16;;;6.53;51.71
43824;BME280;29470;53.550;9.926;2023-02-28T00:28:52;102776.91;;;6.31;51.93
43824;BME280;29470;53.550;9.926;2023-02-28T00:33:56;102785.00;;;6.12;52.88
43824;BME280;29470;53.550;9.926;2023-02-28T00:38:59;102774.31;;;6.24;53.13
43824;BME280;29470;53.550;9.926;2023-02-28T00:44:03;102774.16;;;6.29;51.88
43824;BME280;29470;53.550;9.926;2023-02-28T00:49:07;102783.13;;;5.97;52.98
43824;BME280;29470;53.550;9.926;2023-02-28T00:54:10;102781.66;;;5.92;54.02
43824;BME280;29470;53.550;9.926;2023-02-28T00:59:15;102783.16;;;6.04;53.40
43824;BME280;29470;53.550;9.926;2023-02-28T01:04:18;102785.00;;;6.05;53.63
43824;BME280;29470;53.550;9.926;2023-02-28T01:09:21;102788.63;;;6.43;52.35
43824;BME280;29470;53.550;9.926;2023-02-28T01:14:25;102788.84;;;6.09;52.88
43824;BME280;29470;53.550;9.926;2023-02-28T01:19:28;102788.28;;;6.18;52.51
43824;BME280;29470;53.550;9.926;2023-02-28T01:24:31;102787.31;;;5.96;53.32
43824;BME280;29470;53.550;9.926;2023-02-28T01:29:36;102801.47;;;6.00;53.28
43824;BME280;29470;53.550;9.926;2023-02-28T01:34:39;102793.25;;;6.10;53.07
43824;BME280;29470;53.550;9.926;2023-02-28T01:39:43;102788.28;;;6.18;53.24
43824;BME280;29470;53.550;9.926;2023-02-28T01:45:04;102789.75;;;6.31;52.95
43824;BME280;29470;53.550;9.926;2023-02-28T01:50:12;102787.75;;;6.28;52.96
43824;BME280;29470;53.550;9.926;2023-02-28T01:55:18;102788.84;;;6.16;53.10
43824;BME280;29470;53.550;9.926;2023-02-28T02:00:26;102780.41;;;6.17;53.09
43824;BME280;29470;53.550;9.926;2023-02-28T02:05:31;102774.72;;;6.12;54.36
43824;BME280;29470;53.550;9.926;2023-02-28T02:10:36;102782.97;;;6.24;54.22
43824;BME280;29470;53.550;9.926;2023-02-28T02:15:49;102790.22;;;5.70;55.50
43824;BME280;29470;53.550;9.926;2023-02-28T02:21:32;102792.25;;;5.73;55.28
43824;BME280;29470;53.550;9.926;2023-02-28T02:26:55;102794.25;;;5.68;55.87
43824;BME280;29470;53.550;9.926;2023-02-28T02:32:27;102775.56;;;5.77;55.06
43824;BME280;29470;53.550;9.926;2023-02-28T02:37:38;102774.31;;;5.95;54.25
43824;BME280;29470;53.550;9.926;2023-02-28T02:42:47;102773.72;;;5.68;54.79
43824;BME280;29470;53.550;9.926;2023-02-28T02:47:53;102778.47;;;5.65;54.86
43824;BME280;29470;53.550;9.926;2023-02-28T02:53:01;102777.25;;;5.20;55.26
43824;BME280;29470;53.550;9.926;2023-02-28T02:58:09;102781.16;;;5.38;55.63
43824;BME280;29470;53.550;9.926;2023-02-28T03:03:13;102783.91;;;4.63;58.59
43824;BME280;29470;53.550;9.926;2023-02-28T03:08:20;102771.31;;;4.44;61.68
43824;BME280;29470;53.550;9.926;2023-02-28T03:13:38;102788.59;;;4.52;61.54
43824;BME280;29470;53.550;9.926;2023-02-28T03:18:51;102786.69;;;4.44;62.77
43824;BME280;29470;53.550;9.926;2023-02-28T03:24:04;102787.31;;;4.28;63.80
43824;BME280;29470;53.550;9.926;2023-02-28T03:29:13;102786.13;;;4.19;65.03
43824;BME280;29470;53.550;9.926;2023-02-28T03:34:24;102786.75;;;4.24;64.91
43824;BME280;29470;53.550;9.926;2023-02-28T03:39:34;102792.56;;;4.03;66.41
43824;BME280;29470;53.550;9.926;2023-02-28T03:44:42;102793.22;;;3.94;67.38
43824;BME280;29470;53.550;9.926;2023-02-28T03:49:49;102790.19;;;3.84;67.30
43824;BME280;29470;53.550;9.926;2023-02-28T03:54:59;102794.84;;;3.74;68.34
43824;BME280;29470;53.550;9.926;2023-02-28T04:00:11;102803.56;;;3.68;69.08
43824;BME280;29470;53.550;9.926;2023-02-28T04:05:16;102799.88;;;3.79;68.81
43824;BME280;29470;53.550;9.926;2023-02-28T04:10:21;102799.31;;;3.82;68.74
43824;BME280;29470;53.550;9.926;2023-02-28T04:15:24;102796.97;;;3.83;69.07
43824;BME280;29470;53.550;9.926;2023-02-28T04:20:28;102799.28;;;3.42;71.42
43824;BME280;29470;53.550;9.926;2023-02-28T04:25:32;102798.66;;;3.37;72.96
43824;BME280;29470;53.550;9.926;2023-02-28T04:30:35;102807.41;;;3.19;73.25
43824;BME280;29470;53.550;9.926;2023-02-28T04:35:39;102809.34;;;3.01;75.50
43824;BME280;29470;53.550;9.926;2023-02-28T04:40:43;102804.66;;;3.04;75.31
43824;BME280;29470;53.550;9.926;2023-02-28T04:45:46;102805.66;;;2.86;76.65
43824;BME280;29470;53.550;9.926;2023-02-28T04:50:49;102808.44;;;2.88;77.70
43824;BME280;29470;53.550;9.926;2023-02-28T04:55:53;102809.75;;;2.91;76.77
43824;BME280;29470;53.550;9.926;2023-02-28T05:01:01;102812.19;;;2.84;77.41
43824;BME280;29470;53.550;9.926;2023-02-28T05:06:05;102811.00;;;2.88;77.53
43824;BME280;29470;53.550;9.926;2023-02-28T05:11:14;102811.19;;;2.89;77.35
43824;BME280;29470;53.550;9.926;2023-02-28T05:16:18;102815.59;;;3.03;76.76
43824;BME280;29470;53.550;9.926;2023-02-28T05:21:24;102815.56;;;3.16;75.72
43824;BME280;29470;53.550;9.926;2023-02-28T05:26:29;102826.59;;;3.22;75.03
43824;BME280;29470;53.550;9.926;2023-02-28T05:31:33;102823.16;;;3.22;74.54
43824;BME280;29470;53.550;9.926;2023-02-28T05:36:36;102835.22;;;3.10;75.21
43824;BME280;29470;53.550;9.926;2023-02-28T05:41:42;102824.38;;;2.92;76.29
43824;BME280;29470;53.550;9.926;2023-02-28T05:46:45;102829.69;;;2.94;76.93
43824;BME280;29470;53.550;9.926;2023-02-28T05:51:48;102821.22;;;2.88;77.26
43824;BME280;29470;53.550;9.926;2023-02-28T05:56:52;102830.69;;;3.28;76.89
43824;BME280;29470;53.550;9.926;2023-02-28T06:01:54;102837.59;;;3.54;74.55
43824;BME280;29470;53.550;9.926;2023-02-28T06:06:57;102835.22;;;3.56;73.98
43824;BME280;29470;53.550;9.926;2023-02-28T06:12:03;102843.63;;;3.55;75.10
43824;BME280;29470;53.550;9.926;2023-02-28T06:17:08;102842.72;;;3.54;73.74
43824;BME280;29470;53.550;9.926;2023-02-28T06:22:11;102856.81;;;3.25;75.63
43824;BME280;29470;53.550;9.926;2023-02-28T06:27:15;102847.03;;;3.48;75.02
43824;BME280;29470;53.550;9.926;2023-02-28T06:32:18;102856.41;;;3.68;74.50
43824;BME280;29470;53.550;9.926;2023-02-28T06:37:21;102852.44;;;3.57;75.43
43824;BME280;29470;53.550;9.926;2023-02-28T06:42:28;102859.44;;;3.78;75.38
43824;BME280;29470;53.550;9.926;2023-02-28T06:47:32;102856.69;;;3.77;75.75
43824;BME280;29470;53.550;9.926;2023-02-28T06:52:35;102866.66;;;3.68;76.33
43824;BME280;29470;53.550;9.926;2023-02-28T06:57:40;102855.19;;;5.91;72.97
43824;BME280;29470;53.550;9.926;2023-02-28T07:02:42;102842.81;;;8.95;56.38
43824;BME280;29470;53.550;9.926;2023-02-28T07:07:46;102850.38;;;9.57;49.66
43824;BME280;29470;53.550;9.926;2023-02-28T07:12:50;102854.97;;;9.12;51.12
43824;BME280;29470;53.550;9.926;2023-02-28T07:17:53;102849.22;;;8.98;52.35
43824;BME280;29470;53.550;9.926;2023-02-28T07:22:55;102850.00;;;10.20;49.55
43824;BME280;29470;53.550;9.926;2023-02-28T07:27:59;102858.59;;;10.28;48.13
43824;BME280;29470;53.550;9.926;2023-02-28T07:33:03;102856.91;;;10.03;48.14
43824;BME280;29470;53.550;9.926;2023-02-28T07:38:06;102848.06;;;10.51;47.54
43824;BME280;29470;53.550;9.926;2023-02-28T07:43:11;102852.97;;;9.09;50.26
43824;BME280;29470;53.550;9.926;2023-02-28T07:48:14;102864.66;;;7.44;54.32
43824;BME280;29470;53.550;9.926;2023-02-28T07:53:16;102872.94;;;6.31;59.13
43824;BME280;29470;53.550;9.926;2023-02-28T07:58:21;102875.28;;;6.30;59.53
43824;BME280;29470;53.550;9.926;2023-02-28T08:03:24;102880.16;;;5.99;57.80
43824;BME280;29470;53.550;9.926;2023-02-28T08:08:27;102883.06;;;5.88;57.45
43824;BME280;29470;53.550;9.926;2023-02-28T08:13:33;102880.81;;;5.27;60.50
43824;BME280;29470;53.550;9.926;2023-02-28T08:18:36;102884.03;;;5.96;58.16
43824;BME280;29470;53.550;9.926;2023-02-28T08:23:39;102883.59;;;6.56;55.30
43824;BME280;29470;53.550;9.926;2023-02-28T08:28:43;102883.38;;;6.40;54.54
43824;BME280;29470;53.550;9.926;2023-02-28T08:33:46;102888.78;;;5.85;56.21
43824;BME280;29470;53.550;9.926;2023-02-28T08:38:52;102885.59;;;6.37;54.83
43824;BME280;29470;53.550;9.926;2023-02-28T08:43:56;102885.22;;;6.12;55.28
43824;BME280;29470;53.550;9.926;2023-02-28T08:48:59;102878.63;;;6.65;53.54
43824;BME280;29470;53.550;9.926;2023-02-28T08:54:03;102883.50;;;7.07;51.67
43824;BME280;29470;53.550;9.926;2023-02-28T08:59:09;102883.97;;;7.48;49.90
43824;BME280;29470;53.550;9.926;2023-02-28T09:04:12;102888.34;;;6.97;50.02
43824;BME280;29470;53.550;9.926;2023-02-28T09:09:20;102890.94;;;6.89;49.47
43824;BME280;29470;53.550;9.926;2023-02-28T09:14:24;102892.38;;;7.02;49.79
43824;BME280;29470;53.550;9.926;2023-02-28T09:19:27;102888.84;;;7.16;49.20
43824;BME280;29470;53.550;9.926;2023-02-28T09:24:30;102889.34;;;7.80;47.85
43824;BME280;29470;53.550;9.926;2023-02-28T09:29:35;102892.13;;;8.05;45.74
43824;BME280;29470;53.550;9.926;2023-02-28T09:34:38;102897.00;;;8.48;44.82
43824;BME280;29470;53.550;9.926;2023-02-28T09:39:41;102895.44;;;7.73;46.45
43824;BME280;29470;53.550;9.926;2023-02-28T09:44:46;102903.00;;;8.63;43.88
43824;BME280;29470;53.550;9.926;2023-02-28T09:49:50;102896.44;;;8.58;41.32
43824;BME280;29470;53.550;9.926;2023-02-28T09:54:53;102910.88;;;8.11;42.08
43824;BME280;29470;53.550;9.926;2023-02-28T10:00:08;102909.78;;;7.78;41.92
43824;BME280;29470;53.550;9.926;2023-02-28T10:05:20;102900.38;;;8.71;41.68
43824;BME280;29470;53.550;9.926;2023-02-28T10:10:28;102900.38;;;8.71;39.58
43824;BME280;29470;53.550;9.926;2023-02-28T10:15:35;102900.97;;;8.84;39.86
43824;BME280;29470;53.550;9.926;2023-02-28T10:20:40;102899.13;;;8.36;41.13
43824;BME280;29470;53.550;9.926;2023-02-28T10:25:47;102901.00;;;9.00;40.50
43824;BME280;29470;53.550;9.926;2023-02-28T10:30:54;102892.56;;;8.54;41.82
43824;BME280;29470;53.550;9.926;2023-02-28T10:35:58;102901.41;;;8.96;41.76
43824;BME280;29470;53.550;9.926;2023-02-28T10:41:05;102899.81;;;8.50;43.59
43824;BME280;29470;53.550;9.926;2023-02-28T10:46:18;102890.63;;;8.84;42.60
43824;BME280;29470;53.550;9.926;2023-02-28T10:51:34;102896.88;;;8.86;42.86
43824;BME280;29470;53.550;9.926;2023-02-28T10:56:37;102888.13;;;9.32;42.49
43824;BME280;29470;53.550;9.926;2023-02-28T11:01:43;102891.69;;;9.25;41.66
43824;BME280;29470;53.550;9.926;2023-02-28T11:06:57;102897.84;;;9.03;41.08
43824;BME280;29470;53.550;9.926;2023-02-28T11:12:01;102894.25;;;8.93;40.60
43824;BME280;29470;53.550;9.926;2023-02-28T11:17:15;102888.53;;;9.44;39.52
43824;BME280;29470;53.550;9.926;2023-02-28T11:22:23;102891.47;;;9.31;39.62
43824;BME280;29470;53.550;9.926;2023-02-28T11:27:43;102887.84;;;8.90;40.34
43824;BME280;29470;53.550;9.926;2023-02-28T11:32:50;102879.41;;;8.67;41.15
43824;BME280;29470;53.550;9.926;2023-02-28T11:37:53;102884.06;;;8.32;40.69
43824;BME280;29470;53.550;9.926;2023-02-28T11:43:08;102862.94;;;8.51;40.44
43824;BME280;29470;53.550;9.926;2023-02-28T11:48:22;102867.78;;;8.40;40.24
43824;BME280;29470;53.550;9.926;2023-02-28T11:53:39;102865.53;;;8.20;40.44
43824;BME280;29470;53.550;9.926;2023-02-28T11:58:50;102858.16;;;8.70;40.94
43824;BME280;29470;53.550;9.926;2023-02-28T12:04:06;102856.59;;;8.79;40.15
43824;BME280;29470;53.550;9.926;2023-02-28T12:09:28;102845.19;;;8.77;40.02
43824;BME280;29470;53.550;9.926;2023-02-28T12:14:49;102838.94;;;8.29;39.89
43824;BME280;29470;53.550;9.926;2023-02-28T12:20:05;102834.44;;;8.65;39.80
43824;BME280;29470;53.550;9.926;2023-02-28T12:25:49;102825.31;;;8.76;39.60
43824;BME280;29470;53.550;9.926;2023-02-28T12:30:58;102816.25;;;8.80;39.46
43824;BME280;29470;53.550;9.926;2023-02-28T12:36:07;102810.56;;;8.75;39.26
43824;BME280;29470;53.550;9.926;2023-02-28T12:41:16;102800.91;;;8.42;39.46
43824;BME280;29470;53.550;9.926;2023-02-28T12:46:23;102803.25;;;8.71;39.56
43824;BME280;29470;53.550;9.926;2023-02-28T12:51:29;102795.34;;;8.86;39.66
43824;BME280;29470;53.550;9.926;2023-02-28T12:56:41;102785.34;;;9.05;38.71
43824;BME280;29470;53.550;9.926;2023-02-28T13:01:56;102782.03;;;8.74;39.09
43824;BME280;29470;53.550;9.926;2023-02-28T13:07:18;102778.03;;;8.68;39.40
43824;BME280;29470;53.550;9.926;2023-02-28T13:12:28;102769.28;;;8.75;39.66
43824;BME280;29470;53.550;9.926;2023-02-28T13:17:32;102764.94;;;8.51;40.09
43824;BME280;29470;53.550;9.926;2023-02-28T13:22:40;102756.78;;;8.32;40.00
43824;BME280;29470;53.550;9.926;2023-02-28T13:27:43;102756.50;;;8.45;40.32
43824;BME280;29470;53.550;9.926;2023-02-28T13:33:27;102747.34;;;8.79;41.08
43824;BME280;29470;53.550;9.926;2023-02-28T13:38:36;102754.16;;;8.62;39.16
43824;BME280;29470;53.550;9.926;2023-02-28T13:43:59;102742.47;;;8.66;39.00
43824;BME280;29470;53.550;9.926;2023-02-28T13:49:19;102742.34;;;8.41;40.00
43824;BME280;29470;53.550;9.926;2023-02-28T13:54:30;102752.44;;;8.47;39.72
43824;BME280;29470;53.550;9.926;2023-02-28T13:59:45;102746.22;;;8.61;39.70
43824;BME280;29470;53.550;9.926;2023-02-28T14:05:00;102746.19;;;8.45;39.58
43824;BME280;29470;53.550;9.926;2023-02-28T14:10:05;102754.78;;;8.52;39.83
43824;BME280;29470;53.550;9.926;2023-02-28T14:20:48;102752.31;;;8.38;39.82
43824;BME280;29470;53.550;9.926;2023-02-28T14:25:59;102755.81;;;8.38;39.33
43824;BME280;29470;53.550;9.926;2023-02-28T14:31:10;102756.13;;;8.65;39.06
43824;BME280;29470;53.550;9.926;2023-02-28T14:36:20;102753.28;;;8.54;39.08
43824;BME280;29470;53.550;9.926;2023-02-28T14:41:29;102751.97;;;8.74;39.17
43824;BME280;29470;53.550;9.926;2023-02-28T14:46:36;102755.38;;;8.66;38.99
43824;BME280;29470;53.550;9.926;2023-02-28T14:51:42;102755.47;;;8.59;39.35
43824;BME280;29470;53.550;9.926;2023-02-28T14:56:48;102754.63;;;8.67;39.44
43824;BME280;29470;53.550;9.926;2023-02-28T15:01:52;102755.72;;;8.69;39.75
43824;BME280;29470;53.550;9.926;2023-02-28T15:07:08;102744.97;;;8.73;39.72
43824;BME280;29470;53.550;9.926;2023-02-28T15:12:14;102748.66;;;8.75;39.49
43824;BME280;29470;53.550;9.926;2023-02-28T15:17:22;102742.06;;;8.54;39.99
43824;BME280;29470;53.550;9.926;2023-02-28T15:22:28;102735.00;;;8.76;40.07
43824;BME280;29470;53.550;9.926;2023-02-28T15:27:33;102733.09;;;8.82;40.31
43824;BME280;29470;53.550;9.926;2023-02-28T15:32:42;102727.78;;;8.81;40.71
43824;BME280;29470;53.550;9.926;2023-02-28T15:37:48;102724.84;;;8.78;40.62
43824;BME280;29470;53.550;9.926;2023-02-28T15:42:58;102720.50;;;8.86;40.68
43824;BME280;29470;53.550;9.926;2023-02-28T15:48:01;102719.34;;;8.59;41.23
43824;BME280;29470;53.550;9.926;2023-02-28T15:53:20;102712.47;;;8.43;41.24
43824;BME280;29470;53.550;9.926;2023-02-28T15:58:24;102709.06;;;8.35;41.72
43824;BME280;29470;53.550;9.926;2023-02-28T16:03:40;102709.13;;;8.28;41.77
43824;BME280;29470;53.550;9.926;2023-02-28T16:08:45;102703.03;;;8.11;41.55
43824;BME280;29470;53.550;9.926;2023-02-28T16:13:51;102703.50;;;8.00;42.40
43824;BME280;29470;53.550;9.926;2023-02-28T16:18:55;102699.03;;;8.06;42.62
43824;BME280;29470;53.550;9.926;2023-02-28T16:23:59;102713.91;;;8.09;42.28
43824;BME280;29470;53.550;9.926;2023-02-28T16:29:03;102721.16;;;8.04;42.64
43824;BME280;29470;53.550;9.926;2023-02-28T16:34:06;102725.50;;;7.89;42.91
43824;BME280;29470;53.550;9.926;2023-02-28T16:39:10;102721.63;;;7.70;43.24
43824;BME280;29470;53.550;9.926;2023-02-28T16:44:18;102721.38;;;7.75;43.34
43824;BME280;29470;53.550;9.926;2023-02-28T16:49:23;102719.38;;;7.73;43.71
43824;BME280;29470;53.550;9.926;2023-02-28T16:54:30;102734.09;;;7.43;43.99
43824;BME280;29470;53.550;9.926;2023-02-28T16:59:33;102731.34;;;7.42;44.69
43824;BME280;29470;53.550;9.926;2023-02-28T17:04:36;102737.16;;;7.17;45.39
43824;BME280;29470;53.550;9.926;2023-02-28T17:09:40;102742.13;;;7.23;45.91
43824;BME280;29470;53.550;9.926;2023-02-28T17:14:45;102745.41;;;7.29;46.17
43824;BME280;29470;53.550;9.926;2023-02-28T17:19:49;102746.75;;;7.11;46.25
43824;BME280;29470;53.550;9.926;2023-02-28T17:24:53;102750.41;;;7.13;46.57
43824;BME280;29470;53.550;9.926;2023-02-28T17:29:59;102757.88;;;6.96;46.90
43824;BME280;29470;53.550;9.926;2023-02-28T17:35:02;102758.28;;;6.77;47.47
43824;BME280;29470;53.550;9.926;2023-02-28T17:40:13;102766.41;;;6.58;47.91
43824;BME280;29470;53.550;9.926;2023-02-28T17:45:16;102771.38;;;6.21;48.76
43824;BME280;29470;53.550;9.926;2023-02-28T17:50:21;102777.97;;;5.89;49.87
43824;BME280;29470;53.550;9.926;2023-02-28T17:55:25;102771.53;;;5.86;50.81
43824;BME280;29470;53.550;9.926;2023-02-28T18:00:29;102780.41;;;6.02;50.99
43824;BME280;29470;53.550;9.926;2023-02-28T18:05:33;102778.75;;;6.03;51.09
43824;BME280;29470;53.550;9.926;2023-02-28T18:10:39;102778.19;;;6.13;51.52
43824;BME280;29470;53.550;9.926;2023-02-28T18:15:42;102785.31;;;5.86;52.55
43824;BME280;29470;53.550;9.926;2023-02-28T18:20:45;102792.25;;;5.66;53.11
43824;BME280;29470;53.550;9.926;2023-02-28T18:25:51;102789.59;;;5.44;53.91
43824;BME280;29470;53.550;9.926;2023-02-28T18:30:54;102788.50;;;5.42;54.71
43824;BME280;29470;53.550;9.926;2023-02-28T18:35:57;102785.16;;;5.28;55.24
43824;BME280;29470;53.550;9.926;2023-02-28T18:41:03;102784.56;;;5.16;55.82
43824;BME280;29470;53.550;9.926;2023-02-28T18:46:09;102786.75;;;5.13;56.66
43824;BME280;29470;53.550;9.926;2023-02-28T18:51:14;102787.47;;;5.12;57.18
43824;BME280;29470;53.550;9.926;2023-02-28T18:56:20;102783.94;;;5.05;57.10
43824;BME280;29470;53.550;9.926;2023-02-28T19:01:25;102789.34;;;4.86;57.50
43824;BME280;29470;53.550;9.926;2023-02-28T19:06:32;102784.22;;;4.86;57.72
43824;BME280;29470;53.550;9.926;2023-02-28T19:11:36;102782.53;;;4.79;58.52
43824;BME280;29470;53.550;9.926;2023-02-28T19:16:39;102781.44;;;4.77;58.32
43824;BME280;29470;53.550;9.926;2023-02-28T19:21:42;102784.72;;;4.76;58.83
43824;BME280;29470;53.550;9.926;2023-02-28T19:26:47;102783.78;;;4.76;59.51
43824;BME280;29470;53.550;9.926;2023-02-28T19:31:50;102797.09;;;4.66;59.24
43824;BME280;29470;53.550;9.926;2023-02-28T19:36:53;102793.31;;;4.77;59.17
43824;BME280;29470;53.550;9.926;2023-02-28T19:41:58;102794.34;;;4.64;58.70
43824;BME280;29470;53.550;9.926;2023-02-28T19:47:01;102799.28;;;4.63;58.97
43824;BME280;29470;53.550;9.926;2023-02-28T19:52:04;102793.44;;;4.64;58.97
43824;BME280;29470;53.550;9.926;2023-02-28T19:57:11;102792.72;;;4.45;59.59
43824;BME280;29470;53.550;9.926;2023-02-28T20:02:15;102807.47;;;4.33;58.63
43824;BME280;29470;53.550;9.926;2023-02-28T20:07:19;102800.56;;;4.39;58.23
43824;BME280;29470;53.550;9.926;2023-02-28T20:12:23;102806.41;;;4.38;59.49
43824;BME280;29470;53.550;9.926;2023-02-28T20:17:27;102799.59;;;4.31;58.78
43824;BME280;29470;53.550;9.926;2023-02-28T20:22:30;102810.19;;;4.27;59.05
43824;BME280;29470;53.550;9.926;2023-02-28T20:27:35;102797.94;;;4.32;59.32
43824;BME280;29470;53.550;9.926;2023-02-28T20:32:37;102803.34;;;4.20;59.17
43824;BME280;29470;53.550;9.926;2023-02-28T20:37:40;102802.13;;;4.24;58.68
43824;BME280;29470;53.550;9.926;2023-02-28T20:42:45;102802.63;;;4.21;58.91
43824;BME280;29470;53.550;9.926;2023-02-28T20:47:47;102788.38;;;4.51;57.97
43824;BME280;29470;53.550;9.926;2023-02-28T20:52:52;102803.94;;;4.25;58.71
43824;BME280;29470;53.550;9.926;2023-02-28T20:57:56;102793.19;;;4.07;58.74
43824;BME280;29470;53.550;9.926;2023-02-28T21:02:59;102791.25;;;4.19;58.27
43824;BME280;29470;53.550;9.926;2023-02-28T21:08:01;102793.69;;;4.25;57.81
43824;BME280;29470;53.550;9.926;2023-02-28T21:13:06;102799.75;;;4.05;56.96
43824;BME280;29470;53.550;9.926;2023-02-28T21:18:08;102791.75;;;4.09;56.42
43824;BME280;29470;53.550;9.926;2023-02-28T21:23:11;102799.66;;;4.18;56.21
43824;BME280;29470;53.550;9.926;2023-02-28T21:28:15;102792.97;;;4.06;54.90
43824;BME280;29470;53.550;9.926;2023-02-28T21:33:18;102802.22;;;4.18;54.29
43824;BME280;29470;53.550;9.926;2023-02-28T21:38:21;102809.06;;;4.05;55.33
43824;BME280;29470;53.550;9.926;2023-02-28T21:43:25;102800.06;;;4.21;56.17
43824;BME280;29470;53.550;9.926;2023-02-28T21:48:28;102806.56;;;4.12;55.70
43824;BME280;29470;53.550;9.926;2023-02-28T21:53:32;102804.53;;;4.09;56.10
43824;BME280;29470;53.550;9.926;2023-02-28T21:58:37;102803.22;;;4.06;55.56
43824;BME280;29470;53.550;9.926;2023-02-28T22:03:40;102807.59;;;4.07;56.08
43824;BME280;29470;53.550;9.926;2023-02-28T22:08:44;102806.34;;;3.90;56.60
43824;BME280;29470;53.550;9.926;2023-02-28T22:13:51;102802.25;;;3.98;55.77
43824;BME280;29470;53.550;9.926;2023-02-28T22:18:56;102804.25;;;3.80;55.89
43824;BME280;29470;53.550;9.926;2023-02-28T22:23:59;102801.09;;;3.76;54.83
43824;BME280;29470;53.550;9.926;2023-02-28T22:29:03;102795.97;;;3.76;56.11
43824;BME280;29470;53.550;9.926;2023-02-28T22:34:09;102805.09;;;3.74;56.76
43824;BME280;29470;53.550;9.926;2023-02-28T22:39:12;102811.72;;;3.79;56.46
43824;BME280;29470;53.550;9.926;2023-02-28T22:44:16;102817.56;;;3.78;56.36
43824;BME280;29470;53.550;9.926;2023-02-28T22:49:19;102822.28;;;3.75;56.71
43824;BME280;29470;53.550;9.926;2023-02-28T22:54:22;102816.59;;;3.57;56.62
43824;BME280;29470;53.550;9.926;2023-02-28T22:59:26;102809.72;;;3.63;56.67
43824;BME280;29470;53.550;9.926;2023-02-28T23:04:28;102815.47;;;3.68;56.33
43824;BME280;29470;53.550;9.926;2023-02-28T23:09:31;102815.72;;;3.77;56.88
43824;BME280;29470;53.550;9.926;2023-02-28T23:14:35;102826.34;;;3.60;58.58
43824;BME280;29470;53.550;9.926;2023-02-28T23:19:38;102820.72;;;3.49;59.32
43824;BME280;29470;53.550;9.926;2023-02-28T23:24:41;102825.53;;;3.53;59.82
43824;BME280;29470;53.550;9.926;2023-02-28T23:29:45;102815.53;;;3.42;60.73
43824;BME280;29470;53.550;9.926;2023-02-28T23:34:48;102812.66;;;3.46;62.48
43824;BME280;29470;53.550;9.926;2023-02-28T23:39:51;102807.94;;;3.49;62.46
43824;BME280;29470;53.550;9.926;2023-02-28T23:44:55;102787.72;;;3.58;61.88
43824;BME280;29470;53.550;9.926;2023-02-28T23:49:58;102789.91;;;3.22;64.22
43824;BME280;29470;53.550;9.926;2023-02-28T23:55:01;102783.56;;;3.13;64.89
